Time;durP1;ratioP1;P1;durP2;ratioP2;P2;SDS_P1;SDS_P2;PMS_P1;PMS_P2;Temp;Humidity;BMP_temperature;BMP_pressure;BME280_temperature;BME280_humidity;BME280_pressure;Samples;Min_cycle;Max_cycle;Signal;HPM_P1;HPM_P2
2021/11/18 00:00:11;;;;;;;960.13;893.67;;;;;;;8.00;69.36;101688.00;687110;28;23407;-69
2021/11/18 00:00:35;;;;;;;962.05;895.67;;;;;;;8.00;69.45;101690.69;683754;28;115924;-69
2021/11/18 00:00:57;;;;;;;963.40;897.00;;;;;;;8.00;69.11;101694.22;685246;28;67310;-69
2021/11/18 00:01:21;;;;;;;961.63;895.25;;;;;;;8.00;69.27;101693.38;684991;28;70187;-69
2021/11/18 00:01:46;;;;;;;970.10;903.30;;;;;;;7.99;69.40;101694.34;685377;28;69291;-69
2021/11/18 00:02:08;;;;;;;972.47;905.50;;;;;;;7.99;69.28;101692.50;683936;28;115003;-69
2021/11/18 00:02:29;;;;;;;973.67;906.78;;;;;;;7.99;69.23;101700.59;685885;28;46341;-69
2021/11/18 00:02:51;;;;;;;944.72;878.72;;;;;;;8.00;69.37;101691.53;685983;28;22456;-69
2021/11/18 00:03:13;;;;;;;943.80;877.90;;;;;;;8.01;69.31;101695.94;686232;28;46443;-69
2021/11/18 00:03:34;;;;;;;962.90;896.40;;;;;;;8.01;69.20;101695.94;686044;28;45317;-69
2021/11/18 00:03:57;;;;;;;962.17;895.63;;;;;;;8.01;69.39;101681.63;686578;28;23515;-69
2021/11/18 00:04:19;;;;;;;959.70;893.38;;;;;;;8.01;69.34;101697.75;685288;28;69413;-69
2021/11/18 00:04:40;;;;;;;976.95;909.95;;;;;;;7.99;69.14;101697.88;686189;28;46441;-69
2021/11/18 00:05:02;;;;;;;967.28;900.47;;;;;;;8.00;69.43;101691.53;686675;28;22236;-69
2021/11/18 00:05:26;;;;;;;961.97;895.47;;;;;;;7.99;69.30;101689.81;686645;28;23916;-69
2021/11/18 00:05:47;;;;;;;970.08;903.20;;;;;;;7.97;69.33;101693.66;685274;28;69463;-69
2021/11/18 00:06:09;;;;;;;940.08;874.20;;;;;;;7.96;69.35;101694.63;686255;28;44299;-69
2021/11/18 00:06:30;;;;;;;909.90;845.08;;;;;;;7.94;69.32;101692.91;686965;28;23483;-69
2021/11/18 00:06:52;;;;;;;917.58;852.45;;;;;;;7.95;69.60;101691.09;686415;28;46228;-69
2021/11/18 00:07:13;;;;;;;932.00;866.53;;;;;;;7.94;69.33;101690.22;686874;28;23118;-69
2021/11/18 00:07:34;;;;;;;954.67;888.45;;;;;;;7.94;69.65;101692.91;685737;28;23486;-69
2021/11/18 00:07:56;;;;;;;959.80;893.20;;;;;;;7.94;69.57;101695.59;686182;28;23542;-69
2021/11/18 00:08:18;;;;;;;940.55;874.72;;;;;;;7.94;69.69;101708.22;685231;28;67463;-69
2021/11/18 00:08:39;;;;;;;893.05;828.70;;;;;;;7.93;69.71;101696.63;686946;28;22357;-69
2021/11/18 00:09:00;;;;;;;896.63;832.20;;;;;;;7.94;69.57;101692.91;686278;28;44371;-69
2021/11/18 00:09:24;;;;;;;904.00;839.40;;;;;;;7.95;69.40;101699.16;686637;28;24419;-69
2021/11/18 00:09:45;;;;;;;945.55;879.45;;;;;;;7.93;69.60;101693.94;684900;28;68267;-69
2021/11/18 00:10:06;;;;;;;966.92;900.33;;;;;;;7.92;69.59;101694.91;686778;28;23740;-69
2021/11/18 00:10:29;;;;;;;918.42;853.28;;;;;;;7.92;69.72;101691.38;685966;28;44376;-69
2021/11/18 00:10:53;;;;;;;912.85;847.90;;;;;;;7.94;69.54;101713.59;684702;28;67508;-69
2021/11/18 00:11:15;;;;;;;911.42;846.63;;;;;;;7.97;69.55;101705.25;684830;28;67499;-69
2021/11/18 00:11:36;;;;;;;948.10;882.15;;;;;;;7.94;69.57;101692.06;683739;28;69444;-69
2021/11/18 00:11:57;;;;;;;955.85;889.60;;;;;;;7.97;69.26;101696.34;685373;28;22440;-69
2021/11/18 00:12:19;;;;;;;911.38;846.53;;;;;;;7.95;69.43;101699.16;685828;28;21499;-69
2021/11/18 00:12:42;;;;;;;928.65;863.20;;;;;;;7.96;69.53;101692.78;684226;28;46564;-69
2021/11/18 00:13:06;;;;;;;969.55;902.83;;;;;;;7.94;69.32;101694.78;683959;28;67493;-69
2021/11/18 00:13:30;;;;;;;976.63;909.53;;;;;;;7.95;69.33;101696.47;683620;28;93079;-69
2021/11/18 00:13:53;;;;;;;982.60;915.30;;;;;;;7.96;69.44;101700.00;684451;28;92255;-69
2021/11/18 00:14:14;;;;;;;988.10;920.75;;;;;;;7.96;69.64;101697.31;685158;28;69411;-69
2021/11/18 00:14:37;;;;;;;982.58;915.38;;;;;;;7.96;69.65;101700.00;686772;28;21486;-69
2021/11/18 00:14:58;;;;;;;983.05;915.83;;;;;;;7.94;69.30;101698.28;685112;28;69713;-69
2021/11/18 00:15:20;;;;;;;987.03;919.63;;;;;;;7.96;69.41;101695.47;686572;28;23482;-69
2021/11/18 00:15:42;;;;;;;976.03;909.03;;;;;;;7.96;69.44;101695.47;685882;28;46310;-69
2021/11/18 00:16:05;;;;;;;979.85;912.78;;;;;;;7.95;69.28;101688.41;686096;28;44351;-69
2021/11/18 00:16:27;;;;;;;976.45;909.38;;;;;;;7.92;69.60;101692.22;684347;28;92562;-69
2021/11/18 00:16:48;;;;;;;936.88;871.20;;;;;;;7.92;69.53;101689.53;686987;28;22369;-69
2021/11/18 00:17:10;;;;;;;966.25;899.58;;;;;;;7.93;69.47;101693.06;686961;28;22433;-69
2021/11/18 00:17:32;;;;;;;981.63;914.33;;;;;;;7.93;69.34;101691.25;686079;28;44478;-69
2021/11/18 00:17:55;;;;;;;977.55;910.28;;;;;;;7.93;69.39;101693.94;686640;28;66595;-69
2021/11/18 00:18:17;;;;;;;982.33;915.08;;;;;;;7.94;69.33;101701.00;688040;28;69091;-69
2021/11/18 00:18:40;;;;;;;981.15;913.95;;;;;;;7.93;69.64;101695.75;688701;28;44344;-69
2021/11/18 00:19:04;;;;;;;974.33;907.40;;;;;;;7.92;69.50;101697.59;687875;28;67448;-69
2021/11/18 00:19:25;;;;;;;976.50;909.58;;;;;;;7.92;69.59;101689.53;686937;28;93045;-69
2021/11/18 00:19:46;;;;;;;979.07;911.97;;;;;;;7.93;69.41;101687.66;689023;28;20517;-69
2021/11/18 00:20:13;;;;;;;960.35;893.92;;;;;;;7.90;69.58;101698.72;689180;28;23505;-69
2021/11/18 00:20:37;;;;;;;956.00;889.67;;;;;;;7.93;69.37;101702.00;685523;28;138000;-69
2021/11/18 00:21:00;;;;;;;967.67;900.92;;;;;;;7.94;69.38;101692.06;687955;28;67479;-69
2021/11/18 00:21:24;;;;;;;962.45;896.05;;;;;;;7.92;69.38;101694.91;687685;28;69363;-69
2021/11/18 00:21:45;;;;;;;969.67;902.97;;;;;;;7.93;69.42;101707.38;687060;28;93278;-69
2021/11/18 00:22:06;;;;;;;975.67;908.75;;;;;;;7.94;69.40;101703.69;689738;28;21539;-69
2021/11/18 00:22:27;;;;;;;982.28;915.17;;;;;;;7.95;69.24;101693.78;689520;28;23428;-69
2021/11/18 00:22:48;;;;;;;967.65;900.95;;;;;;;7.94;69.37;101692.06;688820;28;22450;-69
2021/11/18 00:23:10;;;;;;;974.13;907.33;;;;;;;7.94;69.26;101700.16;689886;28;16713;-69
2021/11/18 00:23:33;;;;;;;978.22;911.17;;;;;;;7.95;69.22;101693.78;688807;28;46297;-70
2021/11/18 00:23:56;;;;;;;976.40;909.42;;;;;;;7.96;69.16;101700.00;688004;28;67482;-69
2021/11/18 00:24:18;;;;;;;986.28;918.92;;;;;;;7.94;69.37;101694.78;688417;28;46568;-70
2021/11/18 00:24:41;;;;;;;972.58;905.72;;;;;;;7.93;69.31;101691.25;687234;28;92261;-69
2021/11/18 00:25:03;;;;;;;980.50;913.40;;;;;;;7.92;69.55;101699.44;689738;28;22402;-69
2021/11/18 00:25:25;;;;;;;973.15;906.38;;;;;;;7.92;69.31;101708.34;689881;28;2040;-69
2021/11/18 00:25:46;;;;;;;969.45;902.75;;;;;;;7.94;69.48;101701.00;689175;28;23465;-69
2021/11/18 00:26:08;;;;;;;971.80;904.97;;;;;;;7.94;69.19;101690.22;689490;28;23438;-69
2021/11/18 00:26:31;;;;;;;950.47;884.40;;;;;;;7.94;69.39;101694.78;687449;28;69419;-69
2021/11/18 00:26:54;;;;;;;958.88;892.42;;;;;;;7.94;69.58;101694.78;687550;28;69283;-69
2021/11/18 00:27:15;;;;;;;969.55;902.78;;;;;;;7.91;69.28;101703.94;687714;28;70297;-69
2021/11/18 00:27:37;;;;;;;974.17;907.28;;;;;;;7.92;69.45;101702.13;688202;28;23374;-70
2021/11/18 00:27:59;;;;;;;976.78;909.60;;;;;;;7.92;69.28;101699.44;688774;28;44720;-69
2021/11/18 00:28:21;;;;;;;963.30;896.83;;;;;;;7.90;69.45;101702.25;689211;28;22421;-69
2021/11/18 00:28:42;;;;;;;966.80;900.13;;;;;;;7.90;69.52;101704.13;687913;28;69477;-69
2021/11/18 00:29:05;;;;;;;966.13;899.47;;;;;;;7.87;69.56;101707.91;689741;28;23266;-70
2021/11/18 00:29:26;;;;;;;963.67;897.13;;;;;;;7.83;69.42;101698.41;687358;28;69419;-69
2021/11/18 00:29:47;;;;;;;967.08;900.28;;;;;;;7.87;69.55;101704.38;689548;28;22410;-69
2021/11/18 00:30:11;;;;;;;967.30;900.55;;;;;;;7.86;69.61;101700.81;689791;28;21536;-69
2021/11/18 00:30:35;;;;;;;976.85;909.75;;;;;;;7.85;69.72;101704.53;688957;28;36155;-69
2021/11/18 00:30:57;;;;;;;973.00;906.13;;;;;;;7.86;69.40;101705.38;688012;28;69353;-69
2021/11/18 00:31:19;;;;;;;969.55;902.80;;;;;;;7.83;69.80;101700.25;689312;28;21572;-69
2021/11/18 00:31:40;;;;;;;967.67;900.92;;;;;;;7.85;69.48;101704.53;687601;28;69443;-69
2021/11/18 00:32:04;;;;;;;920.33;855.05;;;;;;;7.84;69.56;101710.88;688736;28;46354;-68
2021/11/18 00:32:25;;;;;;;900.83;836.28;;;;;;;7.85;69.86;101709.91;687748;28;67376;-69
2021/11/18 00:32:47;;;;;;;929.08;863.58;;;;;;;7.84;69.50;101707.34;688708;28;23386;-69
2021/11/18 00:33:09;;;;;;;947.83;881.90;;;;;;;7.83;69.57;101711.84;691066;28;44510;-69
2021/11/18 00:33:30;;;;;;;951.63;885.58;;;;;;;7.81;69.89;101711.16;690930;28;45258;-69
2021/11/18 00:33:53;;;;;;;938.55;872.88;;;;;;;7.80;69.88;101711.28;690854;28;45230;-69
2021/11/18 00:34:15;;;;;;;942.53;876.67;;;;;;;7.80;69.85;101711.28;687589;28;69323;-69
2021/11/18 00:34:36;;;;;;;967.17;900.42;;;;;;;7.80;69.95;101708.59;689345;28;22256;-69
2021/11/18 00:34:59;;;;;;;977.88;910.72;;;;;;;7.79;69.89;101710.44;686928;28;23484;-69
2021/11/18 00:35:23;;;;;;;975.08;908.08;;;;;;;7.81;69.74;101715.69;684703;28;69516;-69
2021/11/18 00:35:45;;;;;;;978.90;911.70;;;;;;;7.80;69.83;101705.91;683825;28;92504;-69
2021/11/18 00:36:07;;;;;;;963.80;897.20;;;;;;;7.81;69.79;101710.31;686470;28;46381;-69
2021/11/18 00:36:29;;;;;;;964.58;897.88;;;;;;;7.81;69.92;101704.94;686171;28;44273;-69
2021/11/18 00:36:51;;;;;;;974.05;906.95;;;;;;;7.81;69.67;101708.47;684968;28;69410;-69
2021/11/18 00:37:12;;;;;;;975.58;908.50;;;;;;;7.83;69.80;101709.16;686634;28;22466;-69
2021/11/18 00:37:34;;;;;;;974.20;907.25;;;;;;;7.83;69.77;101717.22;685940;28;17536;-69
2021/11/18 00:37:56;;;;;;;973.83;906.63;;;;;;;7.82;69.53;101712.88;686180;28;43709;-69
2021/11/18 00:38:21;;;;;;;958.92;892.53;;;;;;;7.83;69.54;101713.69;686033;28;116069;-69
2021/11/18 00:38:42;;;;;;;964.92;898.38;;;;;;;7.81;69.62;101716.53;683803;28;69553;-69
2021/11/18 00:39:05;;;;;;;968.03;901.38;;;;;;;7.80;69.94;101708.59;682129;28;67521;-69
2021/11/18 00:39:27;;;;;;;968.45;901.80;;;;;;;7.79;69.73;101713.13;683944;28;46290;-69
2021/11/18 00:39:49;;;;;;;962.10;895.60;;;;;;;7.80;69.92;101708.59;685148;28;23725;-69
2021/11/18 00:40:12;;;;;;;962.42;895.92;;;;;;;7.80;69.68;101709.44;684656;28;46699;-69
2021/11/18 00:40:35;;;;;;;956.35;889.97;;;;;;;7.80;69.82;101712.13;685528;28;67414;-69
2021/11/18 00:40:57;;;;;;;957.10;890.72;;;;;;;7.79;69.97;101705.06;687942;28;69585;-69
2021/11/18 00:41:22;;;;;;;963.60;897.00;;;;;;;7.80;69.76;101709.44;686120;28;102133;-69
2021/11/18 00:41:43;;;;;;;961.58;895.00;;;;;;;7.81;69.85;101710.31;688581;28;45349;-69
2021/11/18 00:42:04;;;;;;;957.63;891.28;;;;;;;7.79;69.79;101712.25;689381;28;21570;-69
2021/11/18 00:42:25;;;;;;;952.95;886.95;;;;;;;7.79;69.81;101713.13;688383;28;44930;-69
2021/11/18 00:42:47;;;;;;;969.45;902.67;;;;;;;7.76;69.95;101705.34;688332;28;23447;-69
2021/11/18 00:43:10;;;;;;;977.67;910.47;;;;;;;7.80;69.79;101705.91;685452;28;46315;-68
2021/11/18 00:43:32;;;;;;;971.95;905.05;;;;;;;7.79;69.96;101704.19;682237;28;68142;-69
2021/11/18 00:43:54;;;;;;;976.33;909.35;;;;;;;7.78;69.90;101706.03;683027;28;45057;-69
2021/11/18 00:44:15;;;;;;;972.50;905.78;;;;;;;7.79;69.95;101709.56;683001;28;46369;-69
2021/11/18 00:44:37;;;;;;;942.25;876.38;;;;;;;7.79;69.98;101713.13;683967;28;23418;-68
2021/11/18 00:44:59;;;;;;;954.50;888.13;;;;;;;7.79;69.97;101713.13;684823;28;23498;-69
2021/11/18 00:45:24;;;;;;;965.17;898.42;;;;;;;7.79;69.87;101709.56;684054;28;93243;-69
2021/11/18 00:45:46;;;;;;;973.38;906.38;;;;;;;7.78;69.90;101715.94;686858;28;92154;-69
2021/11/18 00:46:08;;;;;;;988.13;920.60;;;;;;;7.80;69.83;101713.97;689496;28;21545;-69
2021/11/18 00:46:32;;;;;;;983.88;916.47;;;;;;;7.79;69.84;101714.94;688490;28;46389;-69
2021/11/18 00:46:54;;;;;;;983.45;916.20;;;;;;;7.80;70.03;101716.66;685863;28;115922;-69
2021/11/18 00:47:15;;;;;;;971.72;904.85;;;;;;;7.80;69.73;101722.88;688279;28;46357;-69
2021/11/18 00:47:37;;;;;;;970.97;904.00;;;;;;;7.79;69.95;101713.13;684626;28;46345;-69
2021/11/18 00:47:58;;;;;;;988.03;920.35;;;;;;;7.79;69.88;101721.19;687066;28;46322;-68
2021/11/18 00:48:20;;;;;;;986.00;918.55;;;;;;;7.78;69.73;101722.19;688711;28;23453;-69
2021/11/18 00:48:42;;;;;;;980.03;912.85;;;;;;;7.78;70.02;101718.66;687792;28;24979;-69
2021/11/18 00:49:05;;;;;;;977.35;910.33;;;;;;;7.79;69.87;101720.31;685941;28;46404;-69
2021/11/18 00:49:26;;;;;;;980.60;913.42;;;;;;;7.79;69.73;101721.19;685512;28;69411;-69
2021/11/18 00:49:48;;;;;;;982.35;915.15;;;;;;;7.78;69.66;101719.47;685548;28;45193;-69
2021/11/18 00:50:10;;;;;;;977.47;910.38;;;;;;;7.77;70.00;101720.47;687289;28;10360;-69
2021/11/18 00:50:37;;;;;;;936.78;871.00;;;;;;;7.80;69.98;101722.03;683390;28;45278;-68
2021/11/18 00:51:01;;;;;;;896.17;831.67;;;;;;;7.78;69.95;101722.19;678641;28;138037;-69
2021/11/18 00:51:22;;;;;;;902.97;838.25;;;;;;;7.78;69.99;101724.88;681479;28;93050;-69
2021/11/18 00:51:46;;;;;;;916.88;851.78;;;;;;;7.78;70.06;101724.03;680989;28;69407;-69
2021/11/18 00:52:07;;;;;;;953.88;887.58;;;;;;;7.78;70.02;101721.34;680461;29;46336;-69
2021/11/18 00:52:28;;;;;;;967.70;900.97;;;;;;;7.76;69.83;101724.16;682713;28;24313;-69
2021/11/18 00:52:49;;;;;;;970.65;903.72;;;;;;;7.78;70.04;101729.41;683977;28;23467;-68
2021/11/18 00:53:11;;;;;;;940.30;874.40;;;;;;;7.77;69.96;101728.53;686795;28;23473;-68
2021/11/18 00:53:34;;;;;;;967.05;900.28;;;;;;;7.78;70.04;101729.41;685941;28;45485;-68
2021/11/18 00:53:57;;;;;;;978.63;911.42;;;;;;;7.79;69.98;101731.09;685661;28;69383;-68
2021/11/18 00:54:19;;;;;;;977.33;910.33;;;;;;;7.78;69.74;101730.25;687285;28;69234;-68
2021/11/18 00:54:40;;;;;;;979.40;912.20;;;;;;;7.80;69.81;101730.94;688577;28;46263;-68
2021/11/18 00:55:02;;;;;;;982.33;915.03;;;;;;;7.80;70.06;101728.25;689519;28;22393;-68
2021/11/18 00:55:25;;;;;;;981.17;913.92;;;;;;;7.80;69.78;101733.63;688399;28;43750;-68
2021/11/18 00:55:49;;;;;;;991.95;924.25;;;;;;;7.80;69.88;101725.56;686718;28;115559;-68
2021/11/18 00:56:10;;;;;;;977.25;910.03;;;;;;;7.80;69.71;101727.41;690657;28;69308;-68
2021/11/18 00:56:33;;;;;;;979.85;912.60;;;;;;;7.81;69.85;101723.75;688956;28;22503;-68
2021/11/18 00:56:58;;;;;;;982.53;915.20;;;;;;;7.80;69.99;101728.25;682357;28;65942;-68
2021/11/18 00:57:20;;;;;;;977.08;909.97;;;;;;;7.80;69.86;101732.78;678428;28;92256;-68
2021/11/18 00:57:41;;;;;;;979.78;912.38;;;;;;;7.79;69.74;101729.25;675927;28;46386;-68
2021/11/18 00:58:07;;;;;;;983.85;916.35;;;;;;;7.80;69.74;101732.78;674876;29;136593;-68
2021/11/18 00:58:30;;;;;;;986.97;919.58;;;;;;;7.79;69.94;101729.25;680396;29;45317;-69
2021/11/18 00:58:53;;;;;;;988.13;920.72;;;;;;;7.78;69.91;101730.25;681211;28;44378;-68
2021/11/18 00:59:14;;;;;;;984.20;916.97;;;;;;;7.79;69.84;101734.66;682888;28;69446;-68
2021/11/18 00:59:35;;;;;;;975.60;908.53;;;;;;;7.78;69.77;101734.78;687804;28;24734;-68
2021/11/18 00:59:57;;;;;;;970.28;903.45;;;;;;;7.79;69.84;101731.09;685475;28;46380;-68
2021/11/18 01:00:20;;;;;;;964.63;898.03;;;;;;;7.76;70.02;101726.84;683749;28;45352;-68
2021/11/18 01:00:45;;;;;;;974.88;907.80;;;;;;;7.76;69.77;101733.06;681717;28;94378;-68
2021/11/18 01:01:07;;;;;;;973.45;906.55;;;;;;;7.76;69.91;101733.06;682358;28;69310;-68
2021/11/18 01:01:32;;;;;;;972.83;905.92;;;;;;;7.78;69.81;101734.78;680535;29;38910;-68
2021/11/18 01:01:56;;;;;;;979.58;912.38;;;;;;;7.76;69.82;101734.91;676426;28;160897;-68
2021/11/18 01:02:18;;;;;;;979.30;912.17;;;;;;;7.75;69.92;101742.09;682543;28;45349;-68
2021/11/18 01:02:39;;;;;;;976.30;909.20;;;;;;;7.76;69.71;101740.28;683462;28;22395;-69
2021/11/18 01:03:01;;;;;;;972.20;905.30;;;;;;;7.77;69.71;101733.91;681259;29;21548;-68
2021/11/18 01:03:24;;;;;;;971.40;904.42;;;;;;;7.78;69.67;101740.16;678662;29;69600;-68
2021/11/18 01:03:46;;;;;;;972.33;905.45;;;;;;;7.75;69.69;101731.34;679968;28;69435;-68
2021/11/18 01:04:07;;;;;;;971.13;904.28;;;;;;;7.76;69.75;101734.91;682745;28;24323;-68
2021/11/18 01:04:30;;;;;;;967.88;901.15;;;;;;;7.75;69.90;101743.94;682405;28;23471;-68
2021/11/18 01:04:51;;;;;;;970.47;903.72;;;;;;;7.75;69.77;101739.41;681282;28;69296;-68
2021/11/18 01:05:13;;;;;;;977.08;910.08;;;;;;;7.73;69.87;101735.19;684766;28;21523;-68
2021/11/18 01:05:38;;;;;;;975.10;908.20;;;;;;;7.74;69.93;101737.72;686616;28;46278;-68
2021/11/18 01:06:01;;;;;;;986.35;918.92;;;;;;;7.76;69.83;101738.44;685322;28;114804;-68
2021/11/18 01:06:23;;;;;;;985.15;917.72;;;;;;;7.76;69.99;101740.28;686109;28;69431;-68
2021/11/18 01:06:45;;;;;;;979.47;912.33;;;;;;;7.73;69.72;101741.41;686284;28;44291;-68
2021/11/18 01:07:07;;;;;;;977.85;910.67;;;;;;;7.75;69.67;101752.03;686637;28;47454;-68
2021/11/18 01:07:28;;;;;;;979.20;911.92;;;;;;;7.74;69.91;101744.94;686706;28;46084;-68
2021/11/18 01:07:50;;;;;;;984.17;916.58;;;;;;;7.74;69.82;101745.81;686177;28;22381;-68
2021/11/18 01:08:12;;;;;;;974.30;907.33;;;;;;;7.72;69.67;101744.22;690173;28;44361;-68
2021/11/18 01:08:34;;;;;;;965.72;899.10;;;;;;;7.72;69.94;101746.91;689665;28;44204;-68
2021/11/18 01:08:56;;;;;;;967.22;900.47;;;;;;;7.71;69.97;101750.56;689146;28;45814;-68
2021/11/18 01:09:18;;;;;;;974.67;907.67;;;;;;;7.70;70.13;101747.03;687814;28;70637;-68
2021/11/18 01:09:40;;;;;;;976.67;909.55;;;;;;;7.70;70.03;101754.28;688890;28;22363;-68
2021/11/18 01:10:02;;;;;;;979.35;912.10;;;;;;;7.68;69.84;101748.16;687423;28;46532;-68
2021/11/18 01:10:24;;;;;;;978.33;911.13;;;;;;;7.69;70.03;101744.50;683868;28;47302;-68
2021/11/18 01:10:49;;;;;;;979.63;912.40;;;;;;;7.68;69.92;101749.03;683272;28;45250;-68
2021/11/18 01:11:14;;;;;;;979.78;912.53;;;;;;;7.67;70.00;101751.84;681678;28;115248;-68
2021/11/18 01:11:35;;;;;;;918.67;853.40;;;;;;;7.66;69.99;101752.81;680536;28;113572;-68
2021/11/18 01:11:57;;;;;;;921.13;855.85;;;;;;;7.65;69.98;101749.28;680218;28;45224;-68
2021/11/18 01:12:19;;;;;;;952.60;886.35;;;;;;;7.64;69.97;101752.94;684431;28;44032;-68
2021/11/18 01:12:42;;;;;;;962.72;896.10;;;;;;;7.65;70.08;101749.28;684761;28;23397;-68
2021/11/18 01:13:04;;;;;;;962.25;895.50;;;;;;;7.65;69.94;101751.09;684638;28;69431;-68
2021/11/18 01:13:27;;;;;;;922.92;857.60;;;;;;;7.65;70.18;101753.78;685032;28;46396;-68
2021/11/18 01:13:48;;;;;;;922.78;857.45;;;;;;;7.67;70.12;101749.16;683323;28;69087;-68
2021/11/18 01:14:11;;;;;;;960.60;894.03;;;;;;;7.67;70.04;101749.16;684617;28;45164;-68
2021/11/18 01:14:35;;;;;;;970.83;903.83;;;;;;;7.67;70.05;101754.53;685874;28;90715;-68
2021/11/18 01:14:56;;;;;;;971.55;904.63;;;;;;;7.66;70.05;101747.44;684402;28;68393;-68
2021/11/18 01:15:20;;;;;;;965.17;898.47;;;;;;;7.67;69.94;101754.53;686596;28;21539;-68
2021/11/18 01:15:47;;;;;;;975.33;908.25;;;;;;;7.65;69.88;101756.47;682548;28;90432;-68
2021/11/18 01:16:12;;;;;;;953.58;887.17;;;;;;;7.66;70.21;101758.19;679278;28;138520;-68
2021/11/18 01:16:35;;;;;;;915.30;850.30;;;;;;;7.64;70.01;101749.41;680032;28;68376;-68
2021/11/18 01:16:56;;;;;;;956.90;890.60;;;;;;;7.64;69.99;101749.41;679448;29;70248;-68
2021/11/18 01:17:22;;;;;;;968.47;901.83;;;;;;;7.62;70.16;101746.00;675572;29;114647;-68
2021/11/18 01:17:44;;;;;;;977.08;909.75;;;;;;;7.62;69.96;101749.56;677101;28;44142;-68
2021/11/18 01:18:05;;;;;;;979.53;912.33;;;;;;;7.62;69.97;101746.00;678624;29;45048;-69
2021/11/18 01:18:27;;;;;;;986.65;919.35;;;;;;;7.62;70.36;101754.06;678732;29;4073;-68
2021/11/18 01:18:53;;;;;;;984.28;916.97;;;;;;;7.62;70.06;101749.56;675170;29;114789;-68
2021/11/18 01:19:14;;;;;;;983.70;916.45;;;;;;;7.64;70.28;101754.81;678387;29;45538;-68
2021/11/18 01:19:37;;;;;;;979.83;912.65;;;;;;;7.63;70.06;101747.72;678442;29;44387;-68
2021/11/18 01:19:58;;;;;;;978.03;910.88;;;;;;;7.64;70.20;101757.50;680266;28;40701;-68
2021/11/18 01:20:23;;;;;;;976.50;909.47;;;;;;;7.65;69.90;101753.78;681509;28;46672;-68
2021/11/18 01:20:46;;;;;;;975.45;908.38;;;;;;;7.64;70.06;101750.25;680986;28;115258;-68
2021/11/18 01:21:10;;;;;;;970.75;903.85;;;;;;;7.63;70.01;101756.63;682223;28;67471;-68
2021/11/18 01:21:32;;;;;;;977.13;910.13;;;;;;;7.62;70.21;101749.56;681060;28;90742;-68
2021/11/18 01:21:54;;;;;;;989.15;921.63;;;;;;;7.62;69.91;101754.06;682482;28;47275;-68
2021/11/18 01:22:16;;;;;;;979.72;912.55;;;;;;;7.62;69.89;101744.19;680457;28;69269;-68
2021/11/18 01:22:39;;;;;;;978.88;911.70;;;;;;;7.61;70.31;101747.00;680563;28;23416;-68
2021/11/18 01:23:01;;;;;;;980.20;913.00;;;;;;;7.60;70.00;101743.44;682619;28;46403;-69
2021/11/18 01:23:25;;;;;;;984.50;917.15;;;;;;;7.59;69.94;101752.50;681149;28;69422;-69
2021/11/18 01:23:47;;;;;;;982.33;915.00;;;;;;;7.58;70.19;101748.94;677558;29;116111;-69
2021/11/18 01:24:09;;;;;;;984.33;917.05;;;;;;;7.58;70.15;101751.63;681294;28;22379;-69
2021/11/18 01:24:54;;;;;;;978.75;911.65;;;;;;;7.59;70.05;101749.81;677635;28;159312;-69
2021/11/18 01:25:18;;;;;;;977.88;910.78;;;;;;;7.60;69.96;101748.81;682432;28;137969;-69
2021/11/18 01:25:41;;;;;;;976.38;909.28;;;;;;;7.60;70.04;101754.19;685019;28;44393;-69
2021/11/18 01:26:06;;;;;;;973.17;906.20;;;;;;;7.61;69.97;101755.06;685252;28;92358;-69
2021/11/18 01:26:27;;;;;;;986.33;918.92;;;;;;;7.60;70.06;101748.81;685539;28;69447;-69
2021/11/18 01:26:48;;;;;;;978.50;911.30;;;;;;;7.58;70.04;101754.31;687378;28;21544;-69
2021/11/18 01:27:09;;;;;;;978.92;911.78;;;;;;;7.57;70.04;101754.50;685950;28;22401;-69
2021/11/18 01:27:31;;;;;;;977.30;910.30;;;;;;;7.58;70.26;101757.00;685568;28;22346;-69
2021/11/18 01:28:12;;;;;;;983.80;916.45;;;;;;;7.56;69.97;101759.00;683359;28;157378;-69
2021/11/18 01:28:34;;;;;;;981.80;914.58;;;;;;;7.57;70.23;101767.94;684088;28;69702;-69
2021/11/18 01:28:55;;;;;;;971.78;904.92;;;;;;;7.56;70.22;101763.53;683162;28;45288;-69
2021/11/18 01:29:17;;;;;;;973.00;906.15;;;;;;;7.56;70.04;101767.06;683970;28;44342;-69
2021/11/18 01:29:40;;;;;;;972.67;905.78;;;;;;;7.55;70.02;101759.13;681538;28;46321;-68
2021/11/18 01:30:03;;;;;;;984.97;917.53;;;;;;;7.56;70.00;101771.59;681726;28;44174;-69
2021/11/18 01:30:26;;;;;;;979.30;912.20;;;;;;;7.57;70.29;101760.69;680822;28;67490;-69
2021/11/18 01:30:48;;;;;;;972.72;905.75;;;;;;;7.58;70.16;101765.06;680261;28;79975;-69
2021/11/18 01:31:16;;;;;;;976.85;909.83;;;;;;;7.58;69.99;101773.13;681705;28;138175;-69
2021/11/18 01:31:37;;;;;;;975.13;908.03;;;;;;;7.57;70.01;101763.38;684494;28;69342;-69
2021/11/18 01:31:59;;;;;;;979.08;911.90;;;;;;;7.57;70.03;101768.78;685278;28;23514;-69
2021/11/18 01:32:23;;;;;;;979.75;912.55;;;;;;;7.56;70.27;101769.75;681660;28;116208;-69
2021/11/18 01:32:49;;;;;;;977.45;910.20;;;;;;;7.56;70.09;101766.22;683883;28;92277;-69
2021/11/18 01:33:16;;;;;;;983.25;915.85;;;;;;;7.57;70.42;101773.31;681989;28;137873;-69
2021/11/18 01:33:39;;;;;;;979.78;912.55;;;;;;;7.57;70.12;101770.63;685562;28;69419;-69
2021/11/18 01:34:01;;;;;;;980.78;913.50;;;;;;;7.54;70.42;101763.66;686794;28;46033;-69
2021/11/18 01:34:26;;;;;;;980.95;913.70;;;;;;;7.54;70.07;101763.66;684442;28;115788;-69
2021/11/18 01:34:48;;;;;;;976.65;909.47;;;;;;;7.53;70.44;101761.09;684021;28;46378;-68
2021/11/18 01:35:10;;;;;;;977.33;910.33;;;;;;;7.55;70.39;101770.75;685087;28;44372;-69
2021/11/18 01:35:32;;;;;;;973.70;906.70;;;;;;;7.52;70.25;101765.63;686017;28;69191;-69
2021/11/18 01:35:55;;;;;;;976.67;909.58;;;;;;;7.53;70.10;101759.25;687496;28;21508;-68
2021/11/18 01:36:17;;;;;;;976.83;909.78;;;;;;;7.54;70.37;101762.81;685848;28;92254;-68
2021/11/18 01:36:46;;;;;;;970.78;903.88;;;;;;;7.54;70.25;101763.66;684265;28;160889;-69
2021/11/18 01:37:07;;;;;;;970.35;903.45;;;;;;;7.55;70.51;101760.00;686140;28;46466;-69
2021/11/18 01:37:28;;;;;;;979.03;911.83;;;;;;;7.54;70.41;101760.97;684177;28;45234;-69
2021/11/18 01:37:49;;;;;;;984.80;917.30;;;;;;;7.54;70.34;101754.75;683560;28;21336;-69
2021/11/18 01:38:12;;;;;;;971.22;904.33;;;;;;;7.54;70.35;101754.75;685073;28;22392;-68
2021/11/18 01:38:35;;;;;;;972.47;905.60;;;;;;;7.53;70.05;101753.88;683879;28;67461;-69
2021/11/18 01:39:14;;;;;;;976.90;909.88;;;;;;;7.53;70.34;101759.25;683649;28;136198;-68
2021/11/18 01:39:36;;;;;;;984.40;917.05;;;;;;;7.53;70.18;101756.56;683923;28;46430;-68
2021/11/18 01:39:58;;;;;;;983.80;916.50;;;;;;;7.52;70.29;101754.88;684101;28;44368;-69
2021/11/18 01:40:22;;;;;;;975.85;908.95;;;;;;;7.53;70.10;101758.41;681244;28;44345;-69
2021/11/18 01:40:51;;;;;;;981.50;914.28;;;;;;;7.54;70.09;101752.91;678203;28;136470;-68
2021/11/18 01:41:24;;;;;;;979.65;912.47;;;;;;;7.52;70.22;101757.56;681020;28;137530;-68
2021/11/18 01:41:46;;;;;;;976.20;909.10;;;;;;;7.53;70.06;101759.25;680348;28;114838;-68
2021/11/18 01:42:12;;;;;;;974.40;907.40;;;;;;;7.53;70.31;101761.94;678852;28;137977;-69
2021/11/18 01:42:33;;;;;;;974.80;907.85;;;;;;;7.55;70.21;101776.13;681645;28;24182;-69
2021/11/18 01:42:58;;;;;;;978.90;911.70;;;;;;;7.53;70.27;101764.63;680766;28;92118;-68
2021/11/18 01:43:21;;;;;;;969.38;902.58;;;;;;;7.52;70.04;101762.94;682388;28;69259;-69